Flight Track Log - Related Links

Times and Time Zones

All times are in EDT time to prevent confusion due to time zone crossing. See the N830QS flight status page for this flight to view local times or setup timezone preferences in your user account.

Time Position Orientation Groundspeed Altitude Reporting Facility
EDT Latitude Longitude Course Direction KTS MPH feet Rate Location/Type
Fri 08:42:48 PM 37.6833 -122.2833 47° Northeast 244 281 4,200  Level Northern Cal TRACON
Fri 08:43:48 PM 37.7333 -122.2333 38° Northeast 270 311 7,300 2,679 Climbing Northern Cal TRACON
Fri 08:45:36 PM 37.8414 -122.1247 38° Northeast 306 352 11,700 2,471 Climbing Oakland Center
Fri 08:46:38 PM 37.9114 -122.0586 37° Northeast 316 364 14,300 2,661 Climbing Oakland Center
Fri 08:47:40 PM 38.0003 -121.9747 37° Northeast 333 383 17,200 2,537 Climbing Oakland Center
Fri 08:48:41 PM 38.0761 -121.9011 37° Northeast 342 394 19,500 2,066 Climbing Oakland Center
Fri 08:49:42 PM 38.1561 -121.8256 37° Northeast 355 409 21,400 1,902 Climbing Oakland Center
Fri 08:50:44 PM 38.2375 -121.7489 36° Northeast 364 419 23,400 1,805 Climbing Oakland Center
Fri 08:51:45 PM 38.3214 -121.6692 37° Northeast 374 430 25,100 1,561 Climbing Oakland Center
Fri 08:52:47 PM 38.4064 -121.5875 37° Northeast 381 438 26,600 1,659 Climbing Oakland Center
Fri 08:53:48 PM 38.5008 -121.4972 37° Northeast 380 437 28,500 1,073 Climbing Oakland Center
Fri 08:54:50 PM 38.5956 -121.4017 38° Northeast 399 459 28,800 -732 Climbing Oakland Center
Fri 08:55:51 PM 38.6875 -121.3106 38° Northeast 425 489 27,000 -1,854 Descending Oakland Center
Fri 08:56:53 PM 38.7847 -121.2117 38° Northeast 437 503 25,000 -1,463 Descending Oakland Center
Fri 08:57:54 PM 38.8764 -121.1186 38° Northeast 429 494 24,000 -488 Descending Oakland Center
Fri 08:58:56 PM 38.9525 -121.0272 43° Northeast 394 453 24,000  Level Oakland Center
Fri 08:59:57 PM 38.9911 -120.9022 68° East 376 433 24,000 -293 Level Oakland Center
Fri 09:00:59 PM 39.0289 -120.7781 69° East 374 430 23,400 -1,463 Descending Oakland Center
Fri 09:02:00 PM 39.0642 -120.6586 69° East 360 414 21,000 -3,073 Descending Oakland Center
Fri 09:03:02 PM 39.1050 -120.5231 69° East 339 390 17,100 -3,317 Descending Oakland Center
Fri 09:04:03 PM 39.1372 -120.4164 69° East 322 371 14,200 -2,195 Descending Oakland Center
Fri 09:05:05 PM 39.1661 -120.3172 69° East 295 339 12,600 -1,171 Descending Oakland Center
Fri 09:06:06 PM 39.2081 -120.2719 40° Northeast 240 276 11,800 -1,366 Descending Oakland Center
Fri 09:07:08 PM 39.2747 -120.2703 North 234 269 9,800 -1,935 Descending Oakland Center

Login

Don't have an account? Register now (free) for customized features, flight alerts, and more!